Terminal Aerodrome Forecast
Issued by NWS Medford, OR

Home | Current Version | Previous Version | Text Only | Print | Product List | Glossary On
Versions: 1 2 3 4 5 6 7 8 9 10 11 12 13 14 15
159
FTUS46 KMFR 221739
TAFMFR
TAF
KMFR 221739Z 2218/2318 VRB03KT P6SM VCSH SCT035
     FM230300 17006KT P6SM VCSH BKN035 BKN080
     FM231200 VRB03KT 5SM BR SCT015 OVC035=

USA.gov is the U.S. government's official web portal to all federal, state and local government web resources and services.